Strona główna
METAR-TAF:

METAR-TAF

Lotnisko :

Doylestown Airport

Doylestown, Pensylwania, Stany Zjednoczone

Szerokość geograficzna: 40-19-48N, Długość geograficzna: 075-07-21W, wysokość: 120 m

Aktualna obserwacja pogody

Raport powstał 35 minut temu, godzina 07:54 UTC
Cisza
Temperatura 19°C
Wilgotność 94%
Ciśnienie 1022 hPa
Widzialność: 16.1 km
Przerywane chmury na wysokości 400 ft
Zachmurzenie całkowite na wysokości 900 ft

METAR: KDYL 280754Z AUTO 00000KT 10SM BKN004 OVC009 19/18 A3018 RMK AO2 RAB20E52 SLP214 P0001 T01940178

czas: 04:29 (08:29 UTC)


TAF: brakujący

Obserwacja i prognoza pogody dla ponad 4000 lotnisk (raport METAR i TAF).

Dostępne stacje oznaczono żółtymi i czerwonymi punktami na mapie.

Najedź kursorem aby zobaczyć nazwę stacji.

Kliknij aby zobaczyć obserwacje i prognozy pogody.

Aby zmienić mapę: kliknij na zielony przycisk z czarnym krzyżykiem, aby powiększyć; na zielony przycisk z myślnikiem, aby pomniejszyć; na zielone strzałki, aby przejść do map sąsiednich.


METAR-TAF: